Time;durP1;ratioP1;P1;durP2;ratioP2;P2;SDS_P1;SDS_P2;PMS_P1;PMS_P2;Temp;Humidity;BMP_temperature;BMP_pressure;BME280_temperature;BME280_humidity;BME280_pressure;Samples;Min_cycle;Max_cycle;Signal;HPM_P1;HPM_P2
2021/12/24 00:01:22;;;;;;;103.15;29.45;;;;;;;;;;5013890;28;20251;-70
2021/12/24 00:03:49;;;;;;;107.60;30.00;;;;;;;;;;5007487;28;20096;-70
2021/12/24 00:06:15;;;;;;;91.97;27.85;;;;;;;;;;5005377;28;20046;-70
2021/12/24 00:08:44;;;;;;;112.55;31.50;;;8.30;99.90;;;;;;5024048;28;20133;-70
2021/12/24 00:11:10;;;;;;;95.78;28.73;;;;;;;;;;4989409;28;20037;-70
2021/12/24 00:13:40;;;;;;;105.40;32.10;;;;;;;;;;5009390;28;20360;-70
2021/12/24 00:16:20;;;;;;;125.40;32.20;;;;;;;;;;5021083;28;20124;-70
2021/12/24 00:19:12;;;;;;;117.47;34.50;;;8.10;99.90;;;;;;5028474;28;20211;-69
2021/12/24 00:35:44;;;;;;;87.93;26.65;;;;;;;;;;5011738;28;20038;-71
2021/12/24 00:38:10;;;;;;;95.80;28.08;;;;;;;;;;5030184;28;20048;-71
2021/12/24 00:40:38;;;;;;;99.97;28.55;;;;;;;;;;5028025;28;20044;-71
2021/12/24 00:43:04;;;;;;;87.57;27.38;;;;;;;;;;5012331;28;20039;-70
2021/12/24 00:45:32;;;;;;;56.58;21.08;;;8.00;99.90;;;;;;5011552;28;20126;-71
2021/12/24 00:47:59;;;;;;;56.40;19.88;;;;;;;;;;5028129;28;20037;-70
2021/12/24 00:50:27;;;;;;;67.45;22.13;;;;;;;;;;5011029;28;20045;-70
2021/12/24 00:55:02;;;;;;;47.45;18.95;;;;;;;;;;5011349;28;20511;-71
2021/12/24 00:55:49;;;;;;;62.50;20.33;;;7.90;99.90;;;;;;5011291;28;20052;-70
2021/12/24 00:58:16;;;;;;;61.63;21.05;;;;;;;;;;5012294;28;20049;-70
2021/12/24 01:00:42;;;;;;;57.65;19.23;;;;;;;;;;5012309;28;20073;-72
2021/12/24 01:03:10;;;;;;;63.70;22.23;;;7.70;99.90;;;;;;5012112;28;20459;-70
2021/12/24 01:05:37;;;;;;;53.42;18.77;;;8.70;99.90;;;;;;5010334;28;20099;-70
2021/12/24 01:08:04;;;;;;;52.65;17.42;;;;;;;;;;5012704;28;20541;-70
2021/12/24 01:10:33;;;;;;;47.13;17.35;;;7.50;99.90;;;;;;4994902;28;20049;-70
2021/12/24 01:13:00;;;;;;;51.45;17.48;;;;;;;;;;5029822;28;20041;-70
2021/12/24 01:15:28;;;;;;;46.97;15.80;;;7.90;99.90;;;;;;5011430;28;20080;-70
2021/12/24 01:18:08;;;;;;;45.58;16.25;;;8.20;99.90;;;;;;5030174;28;20061;-70
2021/12/24 01:20:44;;;;;;;44.97;17.27;;;;;;;;;;5013378;28;20042;-70
2021/12/24 01:25:55;;;;;;;49.08;17.45;;;;;;;;;;5030078;28;20041;-70
2021/12/24 01:44:27;;;;;;;49.53;20.15;;;;;;;;;;5030059;28;20041;-70
2021/12/24 01:46:55;;;;;;;61.55;21.48;;;8.10;99.90;;;;;;5011146;28;20069;-70
2021/12/24 01:49:21;;;;;;;55.17;22.05;;;;;;;;;;5012995;28;20037;-70
2021/12/24 01:51:47;;;;;;;52.42;21.67;;;;;;;;;;5012746;28;20184;-70
2021/12/24 01:54:13;;;;;;;51.83;21.30;;;;;;;;;;5029151;28;20033;-70
2021/12/24 01:56:40;;;;;;;67.47;24.13;;;;;;;;;;5012750;28;20056;-70
2021/12/24 01:59:06;;;;;;;80.70;26.55;;;;;;;;;;5030234;28;20552;-69
2021/12/24 02:01:32;;;;;;;84.88;26.60;;;;;;;;;;5030429;28;20037;-69
2021/12/24 02:03:57;;;;;;;69.03;23.58;;;8.30;99.90;;;;;;5028824;28;20033;-70
2021/12/24 02:06:23;;;;;;;87.60;25.05;;;8.40;99.90;;;;;;5029556;28;20147;-70
2021/12/24 02:08:49;;;;;;;62.42;21.77;;;;;;;;;;5012991;28;20064;-70
2021/12/24 02:11:15;;;;;;;74.22;25.08;;;8.70;99.90;;;;;;5012472;28;20087;-70
2021/12/24 02:13:41;;;;;;;90.15;26.30;;;;;;;;;;5012367;28;20042;-70
2021/12/24 02:16:24;;;;;;;68.10;23.50;;;;;;;;;;5010740;28;20076;-70
2021/12/24 02:29:52;;;;;;;;;;;;;;;;;;5030276;28;20124;-70
2021/12/24 02:32:18;;;;;;;55.75;19.02;;;;;;;;;;5028014;28;19957;-69
2021/12/24 02:34:44;;;;;;;57.20;18.92;;;;;;;;;;5045919;22;20053;-71
2021/12/24 02:37:11;;;;;;;65.90;19.85;;;;;;;;;;5048749;28;20045;-70
2021/12/24 02:39:37;;;;;;;81.82;23.83;;;;;;;;;;5031722;28;20041;-71
2021/12/24 02:42:30;;;;;;;93.00;26.90;;;;;;;;;;5058278;28;20048;-70
2021/12/24 02:44:55;;;;;;;103.30;26.98;;;8.50;99.90;;;;;;5047848;28;20056;-71
2021/12/24 02:55:08;;;;;;;83.32;25.52;;;8.90;99.90;;;;;;5050765;28;20048;-71
2021/12/24 02:57:35;;;;;;;90.10;24.83;;;8.80;99.90;;;;;;5052272;28;20509;-71
2021/12/24 03:00:07;;;;;;;101.72;27.75;;;8.60;99.90;;;;;;5051105;28;20040;-71
2021/12/24 03:02:34;;;;;;;83.00;23.92;;;;;;;;;;5051713;28;20105;-71
2021/12/24 03:05:01;;;;;;;89.30;27.40;;;8.80;99.90;;;;;;5051703;28;20044;-71
2021/12/24 03:07:27;;;;;;;71.78;24.50;;;;;;;;;;5069631;28;20107;-71
2021/12/24 03:09:53;;;;;;;86.93;24.27;;;;;;;;;;5051797;28;20040;-70
2021/12/24 03:12:19;;;;;;;67.50;22.50;;;;;;;;;;5052267;28;20052;-70
2021/12/24 03:14:45;;;;;;;84.68;26.25;;;;;;;;;;5052023;28;20045;-71
2021/12/24 03:17:16;;;;;;;84.50;25.80;;;;;;;;;;5055116;28;20094;-70
2021/12/24 03:19:42;;;;;;;101.32;29.17;;;;;;;;;;5038632;28;20036;-71
2021/12/24 03:24:52;;;;;;;84.65;27.73;;;;;;;;;;5068891;28;20041;-70
2021/12/24 03:27:18;;;;;;;75.13;25.77;;;;;;;;;;5056584;28;20123;-70
2021/12/24 03:29:44;;;;;;;91.07;29.08;;;;;;;;;;5073772;28;20044;-71
2021/12/24 03:32:10;;;;;;;106.20;30.25;;;;;;;;;;5073983;28;20044;-70
2021/12/24 03:34:37;;;;;;;79.82;27.13;;;;;;;;;;5072947;28;20173;-70
2021/12/24 03:37:04;;;;;;;78.97;27.80;;;8.00;99.90;;;;;;5055022;28;20040;-70
2021/12/24 03:39:30;;;;;;;109.70;33.22;;;;;;;;;;5054745;28;20079;-70
2021/12/24 03:41:57;;;;;;;83.32;31.10;;;;;;;;;;5055399;28;20044;-71
2021/12/24 03:44:31;;;;;;;96.93;34.10;;;;;;;;;;5054333;28;20107;-70
2021/12/24 03:47:05;;;;;;;91.53;32.38;;;;;;;;;;5072791;28;20040;-70
2021/12/24 03:52:23;;;;;;;87.25;31.85;;;;;;;;;;5054100;28;20072;-70
2021/12/24 03:55:00;;;;;;;82.72;29.40;;;9.10;99.90;;;;;;5066047;28;20075;-71
2021/12/24 03:57:40;;;;;;;81.88;30.25;;;;;;;;;;5054696;28;20049;-71
2021/12/24 04:00:14;;;;;;;68.43;26.42;;;;;;;;;;5054359;28;20582;-71
2021/12/24 04:02:40;;;;;;;76.63;29.67;;;;;;;;;;5054731;28;20040;-71
2021/12/24 04:05:06;;;;;;;81.78;29.30;;;;;;;;;;5072686;28;20121;-71
2021/12/24 04:07:32;;;;;;;72.05;28.10;;;;;;;;;;5054571;28;20552;-71
2021/12/24 04:10:05;;;;;;;48.88;20.77;;;;;;;;;;5054685;28;20045;-71
2021/12/24 04:12:31;;;;;;;53.72;23.30;;;;;;;;;;5035456;28;20043;-71
2021/12/24 04:14:57;;;;;;;56.65;24.90;;;;;;;;;;5066754;28;20056;-71
2021/12/24 04:17:23;;;;;;;61.95;26.33;;;;;;;;;;5072639;28;20071;-71
2021/12/24 04:25:18;;;;;;;73.22;26.63;;;8.90;99.90;;;;;;5071753;28;20123;-71
2021/12/24 04:27:44;;;;;;;63.67;24.30;;;8.80;99.90;;;;;;5071761;28;20471;-71
2021/12/24 04:30:15;;;;;;;68.07;26.40;;;;;;;;;;5071733;28;20041;-71
2021/12/24 04:32:57;;;;;;;61.40;25.35;;;;;;;;;;5054693;28;20047;-71
2021/12/24 04:51:28;;;;;;;60.60;24.40;;;8.70;99.90;;;;;;5053611;28;20732;-72
2021/12/24 05:02:38;;;;;;;59.65;20.48;;;;;;;;;;5071322;28;20131;-71
2021/12/24 05:08:14;;;;;;;46.80;16.27;;;;;;;;;;5023046;28;20041;-71
2021/12/24 05:10:41;;;;;;;40.45;14.30;;;;;;;;;;5037136;28;20136;-72
2021/12/24 05:13:08;;;;;;;36.47;14.00;;;;;;;;;;5070611;28;20094;-71
2021/12/24 05:15:39;;;;;;;46.83;16.55;;;;;;;;;;5052747;28;20146;-72
2021/12/24 05:23:36;;;;;;;41.33;12.63;;;8.60;99.90;;;;;;5045343;28;20041;-72
2021/12/24 05:26:02;;;;;;;36.50;12.65;;;;;;;;;;5052576;28;20040;-71
2021/12/24 05:28:28;;;;;;;33.22;13.18;;;;;;;;;;5036681;28;20047;-72
2021/12/24 05:30:54;;;;;;;38.72;12.50;;;;;;;;;;5052474;28;20123;-72
2021/12/24 05:33:20;;;;;;;31.90;11.77;;;;;;;;;;5053394;28;20044;-72
2021/12/24 05:35:46;;;;;;;38.25;12.90;;;;;;;;;;5052450;28;20356;-71
2021/12/24 05:38:14;;;;;;;32.47;11.52;;;7.90;99.90;;;;;;5070340;28;20284;-72
2021/12/24 05:40:40;;;;;;;42.17;13.48;;;;;;;;;;5071100;28;20487;-72
2021/12/24 05:43:06;;;;;;;40.47;12.45;;;;;;;;;;5070111;28;20076;-71
2021/12/24 05:45:34;;;;;;;35.83;12.50;;;8.60;99.90;;;;;;5051851;28;20040;-72
2021/12/24 05:47:59;;;;;;;40.88;12.65;;;8.60;99.90;;;;;;5053381;28;20451;-71
2021/12/24 05:50:26;;;;;;;49.25;12.73;;;;;;;;;;5069696;28;20067;-72
2021/12/24 05:52:51;;;;;;;31.52;10.18;;;;;;;;;;5052913;28;20040;-72
2021/12/24 05:55:17;;;;;;;33.67;12.50;;;;;;;;;;5069694;28;20043;-71
2021/12/24 05:57:43;;;;;;;32.33;10.70;;;;;;;;;;5070425;28;20059;-72
2021/12/24 06:00:11;;;;;;;43.88;13.38;;;9.20;99.90;;;;;;5051911;28;20128;-71
2021/12/24 06:02:37;;;;;;;33.38;10.55;;;;;;;;;;5070629;28;20540;-72
2021/12/24 06:05:03;;;;;;;31.67;11.95;;;;;;;;;;5051474;28;20048;-71
2021/12/24 06:07:29;;;;;;;44.08;12.68;;;8.60;99.90;;;;;;5070727;28;20086;-71
2021/12/24 06:09:55;;;;;;;32.35;12.25;;;;;;;;;;5052093;28;20048;-71
2021/12/24 06:12:21;;;;;;;31.02;10.73;;;;;;;;;;5032603;28;20356;-71
2021/12/24 06:14:53;;;;;;;32.58;10.75;;;;;;;;;;5050849;28;20051;-71
2021/12/24 06:17:19;;;;;;;41.67;13.20;;;;;;;;;;5035554;28;20068;-72
2021/12/24 06:19:45;;;;;;;33.03;12.48;;;;;;;;;;5052053;28;20044;-71
2021/12/24 06:22:11;;;;;;;31.42;11.82;;;;;;;;;;5052363;28;20039;-71
2021/12/24 06:24:37;;;;;;;33.38;13.07;;;;;;;;;;5069456;28;20119;-71
2021/12/24 06:27:04;;;;;;;34.13;12.20;;;;;;;;;;5052126;28;20055;-72
2021/12/24 06:29:30;;;;;;;30.75;10.77;;;8.60;99.90;;;;;;5051976;28;20044;-71
2021/12/24 06:31:56;;;;;;;34.05;12.07;;;;;;;;;;5052932;28;20678;-71
2021/12/24 06:34:22;;;;;;;36.53;13.32;;;;;;;;;;5051034;28;20098;-71
2021/12/24 06:36:49;;;;;;;33.42;12.60;;;8.40;99.90;;;;;;5070243;28;20086;-71
2021/12/24 06:39:15;;;;;;;50.00;13.68;;;;;;;;;;5051750;28;20040;-71
2021/12/24 06:41:42;;;;;;;33.60;11.70;;;8.40;99.90;;;;;;5052051;28;20041;-71
2021/12/24 06:44:12;;;;;;;37.13;11.25;;;;;;;;;;5051439;28;20172;-71
2021/12/24 06:46:40;;;;;;;36.30;11.30;;;;;;;;;;5035013;28;20048;-71
2021/12/24 06:49:06;;;;;;;32.50;11.18;;;8.30;99.90;;;;;;5052018;28;20052;-71
2021/12/24 06:51:32;;;;;;;31.02;9.98;;;;;;;;;;5055606;28;20525;-72
2021/12/24 06:53:58;;;;;;;37.80;10.18;;;;;;;;;;5073357;28;20468;-71
2021/12/24 06:56:24;;;;;;;33.63;9.13;;;;;;;;;;5055181;28;20502;-72
2021/12/24 06:58:50;;;;;;;27.27;9.35;;;;;;;;;;5056299;28;20048;-72
2021/12/24 07:01:16;;;;;;;28.58;9.23;;;;;;;;;;5073985;28;20631;-71
2021/12/24 07:03:42;;;;;;;33.45;9.35;;;;;;;;;;5073529;28;20499;-71
2021/12/24 07:06:08;;;;;;;30.58;9.98;;;;;;;;;;5039205;28;20060;-72
2021/12/24 07:08:34;;;;;;;27.92;10.20;;;;;;;;;;5055771;28;20045;-72
2021/12/24 07:11:00;;;;;;;30.48;9.77;;;;;;;;;;5055252;28;20095;-71
2021/12/24 07:13:27;;;;;;;32.83;8.80;;;;;;;;;;5073568;28;20512;-71
2021/12/24 07:15:53;;;;;;;28.67;9.95;;;8.40;99.90;;;;;;5067698;28;20052;-72
2021/12/24 07:18:19;;;;;;;42.95;10.70;;;;;;;;;;5052898;28;20123;-72
2021/12/24 07:20:44;;;;;;;31.60;11.45;;;8.40;99.90;;;;;;5054297;28;20186;-72
2021/12/24 07:23:10;;;;;;;29.35;9.30;;;;;;;;;;5073297;28;20123;-71
2021/12/24 07:25:36;;;;;;;34.50;9.77;;;;;;;;;;5037985;28;20048;-71
2021/12/24 07:28:03;;;;;;;31.52;8.85;;;8.40;99.90;;;;;;5073515;28;20138;-72
2021/12/24 07:30:29;;;;;;;35.25;10.52;;;8.40;99.90;;;;;;5038937;28;20477;-71
2021/12/24 07:32:55;;;;;;;31.80;9.55;;;;;;;;;;5055673;28;20071;-72
2021/12/24 07:35:21;;;;;;;33.38;10.40;;;;;;;;;;5053956;28;20121;-72
2021/12/24 07:37:47;;;;;;;41.22;10.52;;;8.30;99.90;;;;;;5055478;28;20040;-72
2021/12/24 07:40:15;;;;;;;33.97;10.30;;;8.30;99.90;;;;;;5055029;28;20402;-72
2021/12/24 07:42:41;;;;;;;37.65;10.18;;;;;;;;;;5055340;28;20041;-72
2021/12/24 07:45:08;;;;;;;35.42;9.68;;;8.30;99.90;;;;;;5053545;28;20487;-72
2021/12/24 07:47:39;;;;;;;39.65;11.75;;;;;;;;;;5051991;28;20040;-72
2021/12/24 07:52:52;;;;;;;36.75;10.23;;;;;;;;;;5073239;28;20139;-72
2021/12/24 07:55:18;;;;;;;37.40;9.35;;;;;;;;;;5053780;28;20079;-72
2021/12/24 07:57:46;;;;;;;32.17;8.95;;;;;;;;;;5053670;28;20045;-71
2021/12/24 08:00:12;;;;;;;26.65;9.85;;;;;;;;;;5053292;28;20045;-72
2021/12/24 08:02:38;;;;;;;32.25;8.73;;;;;;;;;;5046184;28;20127;-72
2021/12/24 08:05:04;;;;;;;24.27;9.38;;;;;;;;;;5052990;28;20235;-72
2021/12/24 08:07:30;;;;;;;23.88;7.78;;;;;;;;;;5071023;28;20410;-72
2021/12/24 08:09:56;;;;;;;29.45;8.98;;;8.30;99.90;;;;;;5051926;28;20044;-72
2021/12/24 08:12:21;;;;;;;29.95;10.40;;;8.20;99.90;;;;;;5053875;28;20468;-72
2021/12/24 08:14:47;;;;;;;29.50;10.07;;;8.50;99.90;;;;;;5040642;28;20451;-72
2021/12/24 08:17:13;;;;;;;25.67;9.32;;;;;;;;;;5063404;28;20257;-72
2021/12/24 08:19:40;;;;;;;30.80;10.68;;;;;;;;;;5058442;28;20044;-72
2021/12/24 08:22:06;;;;;;;29.40;10.50;;;;;;;;;;5065435;28;20041;-73
2021/12/24 08:24:32;;;;;;;30.52;10.38;;;;;;;;;;5037814;28;20060;-72
2021/12/24 08:26:58;;;;;;;22.70;9.95;;;;;;;;;;5038887;28;20078;-72
2021/12/24 08:29:24;;;;;;;26.35;10.27;;;;;;;;;;5047448;28;20041;-72
2021/12/24 08:31:51;;;;;;;29.27;12.15;;;7.80;99.90;;;;;;5052881;28;20051;-72
2021/12/24 08:34:18;;;;;;;34.05;12.45;;;;;;;;;;5052729;28;20123;-72
2021/12/24 08:36:45;;;;;;;29.20;10.60;;;;;;;;;;5094978;22;20047;-59
2021/12/24 08:39:11;;;;;;;33.75;10.05;;;;;;;;;;5067808;28;20043;-58
2021/12/24 08:41:37;;;;;;;26.00;9.00;;;;;;;;;;5077555;28;20044;-57
2021/12/24 08:44:03;;;;;;;26.15;9.15;;;;;;;;;;5071081;28;20059;-57
2021/12/24 08:46:29;;;;;;;21.63;8.93;;;;;;;;;;5075460;28;20036;-59
2021/12/24 08:48:55;;;;;;;28.42;8.65;;;;;;;;;;5076385;28;20128;-59
2021/12/24 08:51:21;;;;;;;28.98;8.93;;;;;;;;;;5073237;28;20380;-58
2021/12/24 08:53:48;;;;;;;21.98;8.07;;;;;;;;;;5071088;28;20418;-58
2021/12/24 08:56:14;;;;;;;20.10;8.85;;;;;;;;;;5054939;28;20071;-57
2021/12/24 08:58:40;;;;;;;21.80;9.30;;;;;;;;;;5071870;28;20550;-58
2021/12/24 09:01:06;;;;;;;25.65;9.20;;;;;;;;;;5070984;28;20395;-57
2021/12/24 09:03:32;;;;;;;21.13;7.15;;;;;;;;;;5077303;28;20036;-58
2021/12/24 09:05:59;;;;;;;23.08;8.75;;;;;;;;;;5071801;28;20041;-57
2021/12/24 09:08:25;;;;;;;14.43;5.15;;;;;;;;;;5076075;28;20124;-58
2021/12/24 09:10:51;;;;;;;16.05;6.13;;;;;;;;;;5083443;28;20131;-57
2021/12/24 09:13:17;;;;;;;13.30;5.85;;;;;;;;;;5081621;28;20205;-58
2021/12/24 09:15:43;;;;;;;12.95;4.93;;;;;;;;;;5071261;28;20114;-58
2021/12/24 09:18:09;;;;;;;12.30;4.72;;;;;;;;;;5071903;28;20406;-57
2021/12/24 09:20:39;;;;;;;9.98;4.40;;;;;;;;;;5057605;28;20086;-57
2021/12/24 09:23:07;;;;;;;8.48;3.92;;;7.70;99.90;;;;;;5075812;28;20044;-55
2021/12/24 09:25:33;;;;;;;10.02;4.15;;;;;;;;;;5053654;28;20094;-58
2021/12/24 09:27:59;;;;;;;12.63;4.88;;;;;;;;;;5071394;28;20037;-58
2021/12/24 09:30:26;;;;;;;11.88;4.80;;;;;;;;;;5068962;28;20044;-58
2021/12/24 09:32:52;;;;;;;11.25;5.07;;;;;;;;;;5069231;28;20098;-56
2021/12/24 09:35:18;;;;;;;12.93;5.15;;;;;;;;;;5080504;28;20640;-58
2021/12/24 09:37:44;;;;;;;10.63;5.25;;;;;;;;;;5069651;28;20495;-57
2021/12/24 09:40:12;;;;;;;7.65;3.90;;;;;;;;;;5070357;28;20086;-58
2021/12/24 09:42:38;;;;;;;6.88;3.38;;;;;;;;;;5078514;28;20139;-57
2021/12/24 09:45:05;;;;;;;10.95;3.78;;;;;;;;;;5065694;28;20108;-57
2021/12/24 09:47:31;;;;;;;7.97;3.65;;;;;;;;;;5070103;28;20040;-57
2021/12/24 09:49:57;;;;;;;7.00;3.40;;;;;;;;;;5071297;28;20080;-57
2021/12/24 09:52:23;;;;;;;6.90;3.10;;;7.60;99.90;;;;;;5070364;28;20086;-57
2021/12/24 09:54:49;;;;;;;6.70;2.10;;;7.60;99.90;;;;;;5071792;28;20089;-57
2021/12/24 09:57:16;;;;;;;7.07;3.45;;;;;;;;;;5081674;28;20031;-57
2021/12/24 09:59:42;;;;;;;5.13;2.20;;;;;;;;;;5070949;28;20044;-57
2021/12/24 10:02:14;;;;;;;5.53;2.50;;;;;;;;;;5071618;28;20111;-57
2021/12/24 10:04:40;;;;;;;5.05;2.45;;;7.40;99.90;;;;;;5070987;28;20047;-58
2021/12/24 10:07:10;;;;;;;7.28;2.60;;;7.70;99.90;;;;;;5071237;28;20071;-55
2021/12/24 10:09:38;;;;;;;6.90;3.22;;;;;;;;;;5070629;28;20402;-57
2021/12/24 10:12:24;;;;;;;7.03;3.00;;;;;;;;;;5058349;28;20629;-58
2021/12/24 10:14:50;;;;;;;10.50;3.00;;;;;;;;;;5064416;28;20081;-55
2021/12/24 10:17:22;;;;;;;7.70;3.08;;;6.90;99.90;;;;;;5053146;28;20029;-57
2021/12/24 10:19:50;;;;;;;7.25;2.70;;;;;;;;;;5070687;28;20041;-56
2021/12/24 10:22:17;;;;;;;6.80;3.25;;;;;;;;;;5070446;28;20379;-57
2021/12/24 10:24:43;;;;;;;6.53;3.10;;;;;;;;;;5052466;28;20036;-57
2021/12/24 10:27:09;;;;;;;7.68;3.72;;;7.30;99.90;;;;;;5069505;28;20039;-57
2021/12/24 10:29:38;;;;;;;9.00;4.78;;;;;;;;;;5068869;28;20037;-57
2021/12/24 10:32:18;;;;;;;11.45;5.28;;;;;;;;;;5071449;28;20406;-56
2021/12/24 10:34:44;;;;;;;9.85;5.00;;;;;;;;;;5072367;28;20438;-57
2021/12/24 10:37:22;;;;;;;11.93;6.20;;;;;;;;;;5072576;28;20040;-58
2021/12/24 10:39:52;;;;;;;8.40;4.40;;;;;;;;;;5072821;28;20041;-57
2021/12/24 10:42:39;;;;;;;8.70;4.75;;;;;;;;;;5071209;28;20094;-57
2021/12/24 10:45:07;;;;;;;9.27;5.22;;;;;;;;;;5069662;28;20510;-57
2021/12/24 10:47:37;;;;;;;10.82;5.65;;;6.50;99.90;;;;;;5070625;28;20045;-57
2021/12/24 10:55:20;;;;;;;11.63;5.97;;;;;;;;;;5072399;28;20041;-57
2021/12/24 10:57:49;;;;;;;13.43;6.80;;;;;;;;;;5070237;28;20059;-57
2021/12/24 11:00:17;;;;;;;11.30;6.45;;;;;;;;;;5069956;28;20041;-57
2021/12/24 11:02:47;;;;;;;17.02;7.10;;;7.10;99.90;;;;;;5070627;28;20041;-57
2021/12/24 11:05:22;;;;;;;15.00;7.43;;;;;;;;;;5070569;28;20085;-56
2021/12/24 11:07:48;;;;;;;12.07;6.10;;;7.20;99.90;;;;;;5036409;28;20130;-57
2021/12/24 11:10:19;;;;;;;14.13;7.00;;;;;;;;;;5070693;28;20118;-56
2021/12/24 11:12:55;;;;;;;11.95;6.50;;;7.20;99.90;;;;;;5070140;28;20144;-57
2021/12/24 11:15:25;;;;;;;10.05;5.65;;;;;;;;;;5070165;28;20044;-57
2021/12/24 11:17:53;;;;;;;11.40;5.30;;;;;;;;;;5054483;28;20032;-57
2021/12/24 11:20:19;;;;;;;9.50;5.22;;;7.20;99.90;;;;;;5070105;28;20188;-57
2021/12/24 11:23:04;;;;;;;13.27;5.63;;;;;;;;;;5070233;28;20036;-57
2021/12/24 11:25:33;;;;;;;11.55;5.25;;;;;;;;;;5071533;28;20063;-56
2021/12/24 11:27:59;;;;;;;12.10;5.32;;;;;;;;;;5064173;28;20032;-57
2021/12/24 11:30:27;;;;;;;9.50;4.32;;;;;;;;;;5069439;28;20115;-57
2021/12/24 11:32:53;;;;;;;9.20;5.15;;;;;;;;;;5069365;28;20036;-57
2021/12/24 11:35:20;;;;;;;10.80;6.07;;;;;;;;;;5071518;28;20040;-58
2021/12/24 11:37:47;;;;;;;10.02;5.72;;;;;;;;;;5073706;28;20139;-58
2021/12/24 11:40:17;;;;;;;11.85;7.10;;;7.50;99.90;;;;;;5074402;28;20487;-56
2021/12/24 11:43:06;;;;;;;14.05;9.63;;;7.30;99.90;;;;;;5062402;28;20040;-55
2021/12/24 11:45:33;;;;;;;17.10;9.80;;;;;;;;;;5056549;28;20090;-55
2021/12/24 11:47:59;;;;;;;12.80;7.00;;;;;;;;;;5065518;28;20064;-57
2021/12/24 11:50:26;;;;;;;12.50;7.50;;;6.50;99.90;;;;;;5062644;28;20041;-57
2021/12/24 11:52:56;;;;;;;12.23;6.03;;;7.50;99.90;;;;;;5073461;28;20388;-58
2021/12/24 11:55:24;;;;;;;11.55;6.07;;;6.90;99.90;;;;;;5073204;28;20442;-58
2021/12/24 11:57:52;;;;;;;13.02;6.18;;;;;;;;;;5072536;28;20111;-55
2021/12/24 12:00:21;;;;;;;11.70;5.35;;;;;;;;;;5073589;28;20055;-57
2021/12/24 12:02:47;;;;;;;17.05;6.88;;;;;;;;;;5073659;28;20455;-57
2021/12/24 12:05:13;;;;;;;11.60;5.40;;;;;;;;;;5073264;28;20324;-57
2021/12/24 12:07:40;;;;;;;11.43;5.35;;;7.50;99.90;;;;;;5073281;28;20044;-56
2021/12/24 12:10:07;;;;;;;11.98;5.70;;;;;;;;;;5073787;28;20039;-57
2021/12/24 12:12:38;;;;;;;10.20;5.93;;;;;;;;;;5055024;28;20044;-56
2021/12/24 12:15:23;;;;;;;14.20;7.03;;;;;;;;;;5073430;28;20041;-57
2021/12/24 12:17:50;;;;;;;14.93;6.07;;;;;;;;;;5073165;28;20127;-56
2021/12/24 12:20:42;;;;;;;14.07;7.97;;;6.70;99.90;;;;;;5073110;28;20052;-57
2021/12/24 12:23:15;;;;;;;10.23;5.65;;;;;;;;;;5073454;28;20036;-58
2021/12/24 12:25:41;;;;;;;11.23;6.10;;;7.40;99.90;;;;;;5072640;28;20393;-58
2021/12/24 12:28:14;;;;;;;14.57;5.55;;;7.70;99.90;;;;;;5072426;28;20045;-57
2021/12/24 12:30:46;;;;;;;12.98;6.40;;;;;;;;;;5053167;28;20093;-56
2021/12/24 12:33:15;;;;;;;15.85;7.82;;;7.60;99.90;;;;;;5053560;28;20036;-57
2021/12/24 12:35:41;;;;;;;15.10;6.13;;;;;;;;;;5052547;28;20410;-57
2021/12/24 12:38:25;;;;;;;14.90;5.85;;;;;;;;;;5052853;28;20045;-57
2021/12/24 12:40:52;;;;;;;8.55;4.60;;;7.70;99.90;;;;;;5055235;28;20052;-58
2021/12/24 12:43:20;;;;;;;9.65;4.03;;;8.00;99.90;;;;;;5072025;28;20178;-57
2021/12/24 12:45:47;;;;;;;9.40;5.35;;;;;;;;;;5071150;28;20040;-58
2021/12/24 12:48:24;;;;;;;7.10;3.72;;;8.20;99.90;;;;;;5068912;28;20036;-57
2021/12/24 12:50:52;;;;;;;9.35;4.93;;;;;;;;;;5064260;28;20123;-57
2021/12/24 12:53:27;;;;;;;8.38;3.33;;;8.50;99.90;;;;;;5071081;28;20119;-58
2021/12/24 12:56:09;;;;;;;6.25;2.75;;;;;;;;;;5071313;28;20402;-56
2021/12/24 12:58:35;;;;;;;7.82;3.63;;;;;;;;;;5057760;28;20137;-57
2021/12/24 13:01:03;;;;;;;6.97;2.83;;;;;;;;;;5072573;28;20041;-58
2021/12/24 13:03:29;;;;;;;7.97;2.90;;;;;;;;;;5072924;28;20035;-57
2021/12/24 13:06:04;;;;;;;5.80;2.85;;;8.70;99.90;;;;;;5055793;28;20394;-57
2021/12/24 13:08:32;;;;;;;5.50;2.30;;;;;;;;;;5051790;28;20423;-57
2021/12/24 13:11:05;;;;;;;7.13;2.65;;;;;;;;;;5071846;28;20434;-57
2021/12/24 13:14:00;;;;;;;5.50;2.37;;;;;;;;;;5072274;28;20036;-56
2021/12/24 13:16:33;;;;;;;5.07;2.00;;;8.70;99.90;;;;;;5077052;28;20795;-57
2021/12/24 13:19:22;;;;;;;4.90;1.83;;;8.90;99.90;;;;;;5076583;28;20052;-57
2021/12/24 13:24:54;;;;;;;5.57;1.80;;;7.80;99.90;;;;;;5064176;28;20052;-57
2021/12/24 13:27:24;;;;;;;6.82;1.40;;;;;;;;;;5053541;28;20098;-57
2021/12/24 13:30:03;;;;;;;3.42;0.93;;;;;;;;;;5071444;28;20120;-57
2021/12/24 13:32:29;;;;;;;4.38;1.10;;;;;;;;;;5070947;28;20032;-56
2021/12/24 13:34:56;;;;;;;4.57;1.30;;;;;;;;;;5058805;28;20036;-58
2021/12/24 13:37:21;;;;;;;4.43;1.20;;;7.60;99.90;;;;;;5072408;28;20564;-57
2021/12/24 13:39:49;;;;;;;3.95;1.50;;;;;;;;;;5072042;28;20032;-57
2021/12/24 13:42:15;;;;;;;4.43;1.20;;;;;;;;;;5071138;28;20123;-58
2021/12/24 13:44:41;;;;;;;4.97;1.20;;;;;;;;;;5070268;28;20064;-58
2021/12/24 13:47:13;;;;;;;4.78;1.17;;;;;;;;;;5055696;28;20039;-57
2021/12/24 13:50:01;;;;;;;3.90;1.40;;;;;;;;;;5071831;28;20445;-57
2021/12/24 13:55:31;;;;;;;4.00;1.50;;;;;;;;;;5070656;28;20041;-57
2021/12/24 13:58:03;;;;;;;4.13;1.60;;;7.20;99.90;;;;;;5070703;28;20032;-57
2021/12/24 14:00:31;;;;;;;4.90;1.90;;;7.30;99.90;;;;;;5069598;28;20055;-57
2021/12/24 14:02:58;;;;;;;5.22;1.60;;;;;;;;;;5070880;28;20040;-57
2021/12/24 14:05:25;;;;;;;5.47;2.30;;;;;;;;;;5070592;28;20036;-59
2021/12/24 14:08:08;;;;;;;6.00;2.10;;;;;;;;;;5070772;28;20032;-58
2021/12/24 14:10:34;;;;;;;8.30;2.85;;;;;;;;;;5070526;28;20044;-58
2021/12/24 14:13:08;;;;;;;5.90;1.98;;;;;;;;;;5070114;28;20049;-57
2021/12/24 14:15:53;;;;;;;4.10;1.60;;;;;;;;;;5073038;28;20040;-57
2021/12/24 14:18:32;;;;;;;5.28;1.63;;;;;;;;;;5072700;28;20267;-58
2021/12/24 14:23:30;;;;;;;5.68;1.88;;;;;;;;;;5078548;28;20776;-57
2021/12/24 14:25:58;;;;;;;5.47;1.35;;;6.20;99.90;;;;;;5051833;28;20047;-57
2021/12/24 14:28:25;;;;;;;7.20;2.63;;;6.90;99.90;;;;;;5070595;28;20086;-57
2021/12/24 14:31:00;;;;;;;9.90;3.08;;;7.30;99.90;;;;;;5070550;28;20066;-57
2021/12/24 14:33:27;;;;;;;6.78;2.33;;;;;;;;;;5070269;28;20150;-58
2021/12/24 14:35:54;;;;;;;6.30;2.60;;;;;;;;;;5070831;28;20043;-59
2021/12/24 14:38:24;;;;;;;6.68;2.45;;;;;;;;;;5069964;28;20119;-57
2021/12/24 14:40:58;;;;;;;8.70;3.05;;;;;;;;;;5070582;28;20036;-58
2021/12/24 14:43:24;;;;;;;5.68;2.22;;;;;;;;;;5052458;28;20086;-57
2021/12/24 14:45:51;;;;;;;5.43;1.80;;;7.10;99.90;;;;;;5051443;28;20082;-57
2021/12/24 14:48:24;;;;;;;5.82;2.10;;;;;;;;;;5070291;28;20040;-57
2021/12/24 14:50:54;;;;;;;5.60;2.03;;;6.50;99.90;;;;;;5070300;28;20044;-57
2021/12/24 14:53:31;;;;;;;7.38;2.72;;;6.50;99.90;;;;;;5072566;28;20044;-58
2021/12/24 14:56:01;;;;;;;8.88;3.10;;;;;;;;;;5068851;28;20040;-58
2021/12/24 14:58:29;;;;;;;7.63;2.75;;;;;;;;;;5071633;28;20044;-58
2021/12/24 15:00:56;;;;;;;10.63;2.60;;;;;;;;;;5055402;28;20514;-57
2021/12/24 15:03:27;;;;;;;11.68;3.22;;;;;;;;;;5071349;28;20037;-57
2021/12/24 15:05:54;;;;;;;11.18;4.70;;;;;;;;;;5065972;28;20040;-58
2021/12/24 15:08:34;;;;;;;8.23;3.10;;;;;;;;;;5050027;28;20059;-56
2021/12/24 15:11:02;;;;;;;16.20;2.67;;;;;;;;;;5069735;28;20036;-57
2021/12/24 15:13:28;;;;;;;6.78;2.10;;;;;;;;;;5078414;28;20052;-56
2021/12/24 15:15:56;;;;;;;12.82;4.10;;;;;;;;;;5078908;28;20041;-56
2021/12/24 15:18:22;;;;;;;8.75;2.80;;;;;;;;;;5071254;28;20036;-57
2021/12/24 15:20:48;;;;;;;15.00;5.30;;;;;;;;;;5072214;28;20124;-57
2021/12/24 15:23:14;;;;;;;11.05;5.22;;;;;;;;;;5075145;28;20506;-56
2021/12/24 15:25:44;;;;;;;7.53;2.85;;;6.00;99.90;;;;;;5079367;28;20064;-56
2021/12/24 15:28:11;;;;;;;8.80;2.40;;;;;;;;;;5070567;28;20090;-58
2021/12/24 15:30:38;;;;;;;9.43;2.55;;;;;;;;;;5071660;28;20584;-58
2021/12/24 15:33:05;;;;;;;5.90;2.38;;;;;;;;;;5074855;28;20037;-57
2021/12/24 15:35:32;;;;;;;9.88;3.40;;;;;;;;;;5073988;28;20044;-57
2021/12/24 15:37:59;;;;;;;9.30;2.65;;;;;;;;;;5072658;28;20063;-58
2021/12/24 15:40:25;;;;;;;8.43;2.78;;;;;;;;;;5076160;28;20048;-57
2021/12/24 15:42:50;;;;;;;9.60;2.92;;;6.20;99.90;;;;;;5075830;28;20036;-56
2021/12/24 15:45:17;;;;;;;9.60;4.07;;;;;;;;;;5074864;28;20039;-57
2021/12/24 15:47:43;;;;;;;14.68;5.18;;;;;;;;;;5071910;28;20118;-56
2021/12/24 15:50:09;;;;;;;12.88;5.18;;;;;;;;;;5072879;28;20125;-56
2021/12/24 15:52:35;;;;;;;10.55;4.13;;;;;;;;;;5075434;28;20379;-56
2021/12/24 15:55:01;;;;;;;8.57;3.33;;;;;;;;;;5080886;28;20116;-56
2021/12/24 15:57:27;;;;;;;11.73;4.35;;;;;;;;;;5072659;28;20075;-56
2021/12/24 15:59:53;;;;;;;10.65;4.72;;;;;;;;;;5074709;28;20119;-56